Time;durP1;ratioP1;P1;durP2;ratioP2;P2;SDS_P1;SDS_P2;PMS_P1;PMS_P2;Temp;Humidity;BMP_temperature;BMP_pressure;BME280_temperature;BME280_humidity;BME280_pressure;Samples;Min_cycle;Max_cycle;Signal;HPM_P1;HPM_P2
2023/12/05 00:02:16;;;;;;;;;;;2.50;54.70;;;0.05;60.18;100722.81;12253951;19;19918;-89
2023/12/05 00:11:17;;;;;;;;;;;2.20;54.40;;;-0.09;59.96;100689.63;12252406;19;19944;-89
2023/12/05 00:15:20;;;;;;;;;;;2.20;54.50;;;0.16;60.03;100732.94;12256812;19;20241;-88
2023/12/05 00:19:25;;;;;;;;;;;2.10;54.40;;;0.36;60.19;100774.66;12254665;19;19915;-89
2023/12/05 00:23:26;;;;;;;;;;;2.10;54.40;;;-0.11;60.01;100693.06;12251753;19;19923;-89
2023/12/05 00:27:31;;;;;;;;;;;2.10;54.50;;;-0.09;60.18;100692.19;12254959;19;19922;-89
2023/12/05 00:31:33;;;;;;;;;;;2.30;54.60;;;-0.08;60.18;100711.00;12250427;19;19907;-89
2023/12/05 00:35:36;;;;;;;;;;;2.30;54.70;;;0.10;59.93;100721.03;12253432;19;19921;-89
2023/12/05 00:39:41;;;;;;;;;;;2.10;54.60;;;0.30;60.10;100764.47;12253321;19;19918;-89
2023/12/05 00:43:42;;;;;;;;;;;1.90;54.40;;;0.13;60.20;100730.44;12250917;19;19910;-89
2023/12/05 00:47:47;;;;;;;;;;;2.30;54.70;;;-0.14;60.14;100688.81;12254763;19;19914;-88
2023/12/05 00:51:49;;;;;;;;;;;2.00;54.50;;;-0.16;60.03;100688.00;12250898;19;19915;-89
2023/12/05 00:55:54;;;;;;;;;;;2.00;54.50;;;0.09;60.27;100728.78;12254132;19;19915;-89
2023/12/05 00:59:56;;;;;;;;;;;1.90;54.50;;;-0.09;59.99;100688.78;12250538;19;19918;-89
2023/12/05 01:03:59;;;;;;;;;;;2.00;54.50;;;-0.36;60.16;100657.44;12251496;19;20253;-88
2023/12/05 01:08:00;;;;;;;;;;;2.20;54.70;;;-0.25;60.17;100670.13;12253328;19;19932;-89
2023/12/05 01:12:05;;;;;;;;;;;2.20;54.80;;;-0.09;60.20;100699.03;12249499;19;20260;-89
2023/12/05 01:16:10;;;;;;;;;;;2.00;54.60;;;-0.16;60.13;100682.88;12251184;19;20352;-88
2023/12/05 01:20:12;;;;;;;;;;;2.00;54.60;;;-0.14;60.17;100691.38;12251545;19;19940;-88
2023/12/05 01:24:14;;;;;;;;;;;2.30;54.70;;;0.29;60.28;100764.47;12250887;19;19915;-88
2023/12/05 01:28:19;;;;;;;;;;;2.00;54.70;;;0.19;60.21;100743.22;12253759;19;19923;-88
2023/12/05 01:32:20;;;;;;;;;;;2.00;54.60;;;-0.16;60.20;100682.00;12247300;19;19982;-88
2023/12/05 01:36:26;;;;;;;;;;;2.20;54.80;;;0.26;60.26;100752.53;12251062;19;19915;-88
2023/12/05 01:40:28;;;;;;;;;;;2.10;54.80;;;-0.07;59.91;100685.31;12249920;19;21969;-88
2023/12/05 01:44:30;;;;;;;;;;;2.10;54.70;;;-0.17;60.13;100675.19;12246222;19;19919;-88
2023/12/05 01:48:33;;;;;;;;;;;2.30;54.80;;;0.01;60.25;100717.75;12249199;19;19919;-88
2023/12/05 01:52:35;;;;;;;;;;;2.10;54.70;;;-0.16;60.24;100684.56;12249362;19;19919;-88
2023/12/05 01:56:39;;;;;;;;;;;2.10;54.60;;;-0.15;60.35;100683.72;12248969;19;19919;-88
2023/12/05 02:00:42;;;;;;;;;;;2.00;54.70;;;-0.14;60.26;100676.00;12247063;19;20355;-88
2023/12/05 02:04:44;;;;;;;;;;;2.00;54.60;;;-0.28;60.18;100652.22;12246878;19;20373;-88
2023/12/05 02:08:49;;;;;;;;;;;2.10;54.70;;;-0.24;60.22;100657.31;12248742;19;20370;-88
2023/12/05 02:12:51;;;;;;;;;;;2.20;54.70;;;-0.21;60.23;100653.84;12249350;19;19923;-88
2023/12/05 02:17:03;;;;;;;;;;;2.20;54.80;;;-0.22;60.29;100649.56;12250800;19;19919;-88
2023/12/05 02:21:15;;;;;;;;;;;2.00;54.70;;;0.05;60.29;100691.16;12245575;19;19923;-89
2023/12/05 02:25:40;;;;;;;;;;;2.00;54.60;;;-0.22;60.23;100634.19;12247807;19;20515;-88
2023/12/05 02:29:59;;;;;;;;;;;2.00;54.70;;;0.01;60.36;100658.72;12245791;19;19926;-89
2023/12/05 02:34:01;;;;;;;;;;;2.00;54.70;;;-0.19;60.31;100628.16;12249251;19;19937;-88
2023/12/05 02:38:18;;;;;;;;;;;2.10;54.80;;;-0.29;60.23;100609.47;12247240;19;19926;-89
2023/12/05 02:42:23;;;;;;;;;;;2.10;54.80;;;-0.52;60.20;100555.88;12240224;19;19962;-88
2023/12/05 02:46:25;;;;;;;;;;;2.30;54.80;;;-0.02;60.36;100644.22;12246724;19;19927;-88
2023/12/05 02:50:26;;;;;;;;;;;2.30;54.90;;;-0.15;60.46;100610.16;12243855;19;19939;-88
2023/12/05 02:54:28;;;;;;;;;;;2.30;54.90;;;-0.03;60.22;100629.66;12246434;19;19919;-88
2023/12/05 02:58:30;;;;;;;;;;;2.40;55.00;;;-0.16;60.34;100607.59;12245995;19;19927;-88
2023/12/05 03:02:32;;;;;;;;;;;2.30;54.90;;;-0.21;60.15;100592.28;12243266;19;19929;-88
2023/12/05 03:06:37;;;;;;;;;;;2.00;54.80;;;-0.29;60.20;100571.00;12248037;19;19919;-88
2023/12/05 03:10:39;;;;;;;;;;;2.10;54.80;;;0.06;60.30;100641.53;12244542;19;20297;-88
2023/12/05 03:14:41;;;;;;;;;;;2.30;54.90;;;-0.34;60.47;100575.34;12245489;19;19934;-88
2023/12/05 03:18:45;;;;;;;;;;;2.00;54.80;;;0.29;60.33;100674.59;12247283;19;19918;-88
2023/12/05 03:22:47;;;;;;;;;;;1.80;54.70;;;-0.19;60.45;100594.81;12244909;19;19919;-88
2023/12/05 03:26:49;;;;;;;;;;;2.40;55.00;;;0.12;60.29;100641.44;12248914;19;19998;-88
2023/12/05 03:30:50;;;;;;;;;;;2.00;54.80;;;-0.17;60.44;100587.94;12243247;19;19967;-89
2023/12/05 03:34:53;;;;;;;;;;;2.10;54.90;;;-0.16;60.37;100590.50;12247122;19;19925;-88
2023/12/05 03:38:55;;;;;;;;;;;2.10;54.80;;;-0.14;60.45;100588.72;12245205;19;19919;-88
2023/12/05 03:42:57;;;;;;;;;;;2.30;55.00;;;-0.17;60.42;100601.59;12241954;19;19922;-88
2023/12/05 03:46:58;;;;;;;;;;;2.10;54.90;;;-0.12;60.31;100606.69;12246325;19;19919;-89
2023/12/05 03:51:00;;;;;;;;;;;2.10;54.90;;;-0.13;60.24;100585.31;12240705;19;20310;-88
2023/12/05 03:55:02;;;;;;;;;;;2.10;54.90;;;-0.09;60.57;100589.53;12244974;19;19919;-88
2023/12/05 03:59:04;;;;;;;;;;;2.10;54.90;;;-0.09;60.30;100597.22;12242646;19;19914;-88
2023/12/05 04:03:05;;;;;;;;;;;2.10;55.00;;;-0.03;60.52;100606.56;12242785;19;19940;-88
2023/12/05 04:07:07;;;;;;;;;;;2.30;55.00;;;-0.20;60.35;100570.88;12243982;19;20337;-88
2023/12/05 04:11:10;;;;;;;;;;;2.50;55.10;;;-0.06;60.39;100597.19;12239519;19;19919;-88
2023/12/05 04:15:12;;;;;;;;;;;2.40;55.10;;;0.34;60.44;100662.53;12254546;19;19914;-88
2023/12/05 04:19:13;;;;;;;;;;;2.20;55.10;;;-0.16;60.46;100559.72;12255960;19;19940;-88
2023/12/05 04:23:15;;;;;;;;;;;2.20;55.00;;;0.03;60.35;100595.34;12251393;19;19954;-88
2023/12/05 04:27:18;;;;;;;;;;;2.20;55.00;;;0.01;60.50;100591.97;12255684;19;19915;-88
2023/12/05 04:31:20;;;;;;;;;;;2.30;55.00;;;0.06;60.51;100596.19;12252343;19;19933;-88
2023/12/05 04:35:22;;;;;;;;;;;2.50;55.10;;;0.17;60.33;100608.88;12254071;19;19923;-89
2023/12/05 04:39:23;;;;;;;;;;;2.30;55.00;;;0.11;60.48;100578.13;12254489;19;19914;-89
2023/12/05 04:43:25;;;;;;;;;;;2.30;55.00;;;-0.11;60.39;100554.47;12251160;19;19914;-88
2023/12/05 04:47:30;;;;;;;;;;;2.60;55.10;;;0.06;60.51;100580.78;12254060;19;19919;-89
2023/12/05 04:51:32;;;;;;;;;;;2.40;55.10;;;0.39;60.45;100641.06;12249423;19;20326;-88
2023/12/05 04:55:34;;;;;;;;;;;2.30;55.00;;;0.15;60.32;100587.50;12253357;19;19923;-88
2023/12/05 04:59:38;;;;;;;;;;;2.60;55.20;;;0.20;60.46;100601.13;12244221;19;19930;-89
2023/12/05 05:03:43;;;;;;;;;;;2.10;54.90;;;0.20;60.34;100590.84;12250926;19;20253;-89
2023/12/05 05:07:44;;;;;;;;;;;2.40;55.00;;;0.08;60.46;100560.19;12251079;19;19933;-88
2023/12/05 05:11:47;;;;;;;;;;;2.80;55.10;;;0.49;60.41;100640.91;12246881;19;19915;-88
2023/12/05 05:15:51;;;;;;;;;;;2.40;54.90;;;0.02;60.34;100556.00;12234355;19;19914;-89
2023/12/05 05:19:53;;;;;;;;;;;2.40;55.00;;;0.24;60.39;100579.63;12248659;19;20389;-89
2023/12/05 05:23:54;;;;;;;;;;;2.40;55.00;;;0.12;60.52;100549.88;12246206;19;19919;-89
2023/12/05 05:27:59;;;;;;;;;;;2.40;55.00;;;0.14;60.47;100539.59;12251806;19;19970;-88
2023/12/05 05:32:01;;;;;;;;;;;2.50;55.00;;;0.33;60.42;100574.38;12240948;19;20338;-89
2023/12/05 05:36:03;;;;;;;;;;;2.50;55.10;;;0.33;60.51;100563.25;12250352;19;19911;-89
2023/12/05 05:40:07;;;;;;;;;;;2.50;54.90;;;0.62;60.50;100614.16;12246466;19;20781;-88
2023/12/05 05:44:08;;;;;;;;;;;2.60;55.00;;;0.61;60.31;100612.47;12247117;19;19911;-89
2023/12/05 05:48:11;;;;;;;;;;;2.60;55.10;;;0.44;60.43;100572.47;12248654;19;19918;-89
2023/12/05 05:52:16;;;;;;;;;;;2.60;55.00;;;0.32;60.41;100548.72;12245712;19;19911;-89
2023/12/05 05:56:18;;;;;;;;;;;2.60;55.00;;;0.71;60.42;100621.72;12249187;19;19969;-89
2023/12/05 06:00:20;;;;;;;;;;;2.60;55.00;;;0.34;60.41;100565.78;12247928;19;19915;-89
2023/12/05 06:04:32;;;;;;;;;;;2.60;54.90;;;0.81;60.36;100642.97;12245425;19;19926;-89
2023/12/05 06:08:34;;;;;;;;;;;2.60;54.80;;;0.48;60.40;100600.69;12248023;19;19929;-89
2023/12/05 06:12:36;;;;;;;;;;;2.90;55.00;;;0.50;60.46;100601.53;12248470;19;19910;-89
2023/12/05 06:16:37;;;;;;;;;;;2.70;55.00;;;0.48;60.54;100605.81;12250794;19;19954;-89
2023/12/05 06:20:39;;;;;;;;;;;2.70;55.00;;;0.73;60.59;100647.38;12246404;19;19919;-89
2023/12/05 06:24:41;;;;;;;;;;;2.70;55.00;;;0.57;60.54;100603.13;12248615;19;19914;-89
2023/12/05 06:28:42;;;;;;;;;;;3.00;55.10;;;0.73;60.43;100632.84;12260688;19;19923;-91
2023/12/05 06:32:44;;;;;;;;;;;2.80;55.10;;;0.77;60.35;100626.75;12259863;19;19927;-87
2023/12/05 06:36:46;;;;;;;;;;;2.60;54.90;;;0.61;60.32;100604.75;12261074;19;19947;-87
2023/12/05 06:40:48;;;;;;;;;;;2.80;55.00;;;0.60;60.44;100592.78;12242552;19;19922;-87
2023/12/05 06:44:51;;;;;;;;;;;2.80;55.00;;;0.76;60.40;100621.66;12249798;19;19926;-87
2023/12/05 06:48:55;;;;;;;;;;;2.80;55.00;;;1.04;60.50;100666.56;12257434;19;19923;-87
2023/12/05 06:52:59;;;;;;;;;;;2.80;54.90;;;1.07;60.54;100665.69;12254935;19;19914;-87
2023/12/05 06:57:01;;;;;;;;;;;3.10;55.10;;;0.59;60.53;100597.06;12253703;19;19915;-87
2023/12/05 07:01:03;;;;;;;;;;;3.00;55.00;;;1.01;60.33;100658.06;12249725;19;19934;-87
2023/12/05 07:05:05;;;;;;;;;;;2.90;54.90;;;0.63;60.31;100598.72;12257583;19;19915;-87
2023/12/05 07:09:07;;;;;;;;;;;2.90;54.90;;;0.89;60.33;100633.41;12255186;19;19918;-87
2023/12/05 07:13:09;;;;;;;;;;;2.90;54.90;;;1.09;60.53;100663.94;12254812;19;19915;-87
2023/12/05 07:17:10;;;;;;;;;;;2.90;54.90;;;0.67;60.39;100596.94;12255793;19;20284;-87
2023/12/05 07:21:12;;;;;;;;;;;3.00;54.90;;;0.69;60.36;100595.19;12251527;19;19977;-87
2023/12/05 07:25:14;;;;;;;;;;;2.90;55.00;;;0.52;60.22;100553.53;12252947;19;19919;-87
2023/12/05 07:29:15;;;;;;;;;;;3.00;55.00;;;1.16;60.36;100662.97;12243967;19;19915;-87
2023/12/05 07:33:16;;;;;;;;;;;2.90;54.90;;;0.68;60.34;100590.94;12243910;19;19923;-87
2023/12/05 07:37:18;;;;;;;;;;;2.90;54.90;;;0.66;60.22;100585.81;12244088;19;19922;-87
2023/12/05 07:41:22;;;;;;;;;;;2.90;54.90;;;0.77;60.35;100590.78;12239115;19;19927;-87
2023/12/05 07:45:24;;;;;;;;;;;2.90;54.90;;;0.70;60.32;100581.47;12243668;19;20357;-87
2023/12/05 07:49:25;;;;;;;;;;;3.00;54.90;;;0.71;60.39;100596.03;12253375;19;19919;-87
2023/12/05 07:53:27;;;;;;;;;;;2.90;54.90;;;0.99;60.56;100634.94;12256340;19;19919;-87
2023/12/05 07:57:29;;;;;;;;;;;2.90;55.00;;;0.98;60.49;100628.13;12256564;19;19933;-87
2023/12/05 08:01:31;;;;;;;;;;;2.90;55.00;;;0.75;60.46;100589.94;12246145;19;19947;-87
2023/12/05 08:05:33;;;;;;;;;;;3.00;55.00;;;0.91;60.57;100617.97;12251832;19;20381;-87
2023/12/05 08:09:35;;;;;;;;;;;3.20;55.10;;;1.27;60.42;100667.88;12249990;19;19951;-87
2023/12/05 08:13:37;;;;;;;;;;;3.00;55.00;;;0.85;60.46;100599.19;12250719;19;20526;-87
2023/12/05 08:17:38;;;;;;;;;;;3.00;54.90;;;1.16;60.64;100638.94;12257115;19;20269;-86
2023/12/05 08:21:40;;;;;;;;;;;3.00;54.90;;;1.31;60.38;100665.25;12253968;19;19974;-86
2023/12/05 08:25:41;;;;;;;;;;;3.20;55.00;;;1.26;60.55;100669.63;12259004;19;19929;-87
2023/12/05 08:29:43;;;;;;;;;;;3.40;55.10;;;1.29;60.61;100664.41;12252317;19;19915;-86
2023/12/05 08:33:44;;;;;;;;;;;3.10;55.00;;;1.41;60.40;100685.69;12256613;19;20329;-86
2023/12/05 08:37:46;;;;;;;;;;;3.20;55.10;;;1.23;60.61;100641.38;12256928;19;19946;-87
2023/12/05 08:41:47;;;;;;;;;;;3.20;55.10;;;1.45;60.70;100666.72;12250611;19;20259;-87
2023/12/05 08:45:49;;;;;;;;;;;3.20;55.00;;;1.41;60.53;100659.94;12256680;19;19956;-87
2023/12/05 08:49:50;;;;;;;;;;;3.60;55.10;;;1.59;60.40;100689.63;12252197;19;19934;-87
2023/12/05 08:53:52;;;;;;;;;;;3.30;55.00;;;1.55;60.55;100671.66;12255585;19;19922;-84
2023/12/05 08:57:53;;;;;;;;;;;3.60;55.20;;;1.60;60.57;100684.44;12237453;19;19922;-83
2023/12/05 09:01:55;;;;;;;;;;;3.40;55.00;;;1.53;60.72;100667.41;12239721;19;20350;-83
2023/12/05 09:05:56;;;;;;;;;;;3.40;55.00;;;1.65;60.51;100674.06;12239027;19;19922;-85
2023/12/05 09:09:58;;;;;;;;;;;3.40;55.00;;;1.70;60.57;100678.25;12234226;19;19922;-85
2023/12/05 09:13:59;;;;;;;;;;;3.50;55.10;;;1.78;60.74;100688.38;12245060;19;20345;-85
2023/12/05 09:18:01;;;;;;;;;;;3.50;55.00;;;1.46;60.42;100625.53;12246322;19;19925;-87
2023/12/05 09:22:03;;;;;;;;;;;3.50;55.10;;;1.81;60.61;100675.47;12244487;19;19929;-85
2023/12/05 09:26:05;;;;;;;;;;;3.60;55.10;;;1.77;60.57;100678.97;12247594;19;19919;-85
2023/12/05 09:30:06;;;;;;;;;;;3.60;54.80;;;1.81;60.54;100665.19;12247174;19;19939;-85
2023/12/05 09:34:08;;;;;;;;;;;3.60;54.70;;;1.82;60.46;100666.84;12245235;19;19915;-85
2023/12/05 09:38:10;;;;;;;;;;;3.70;55.00;;;1.93;60.76;100676.94;12248275;19;19919;-85
2023/12/05 09:42:13;;;;;;;;;;;3.70;55.00;;;1.80;60.60;100653.16;12232062;19;19930;-85
2023/12/05 09:46:16;;;;;;;;;;;3.70;55.00;;;1.51;60.39;100594.53;12238884;19;20364;-85
2023/12/05 09:50:19;;;;;;;;;;;3.80;55.00;;;2.05;60.50;100668.94;12233576;19;19952;-85
2023/12/05 09:54:21;;;;;;;;;;;3.80;54.90;;;1.99;60.49;100635.59;12239409;19;19914;-85
2023/12/05 09:58:23;;;;;;;;;;;3.90;55.00;;;1.64;60.63;100584.84;12235097;19;19919;-85
2023/12/05 10:02:25;;;;;;;;;;;3.90;54.90;;;1.77;60.66;100607.72;12233387;19;19982;-85
2023/12/05 10:06:29;;;;;;;;;;;4.20;55.00;;;2.21;60.75;100661.75;12247443;19;19934;-85
2023/12/05 10:10:31;;;;;;;;;;;3.90;54.90;;;2.22;60.59;100654.00;12243182;19;19919;-85
2023/12/05 10:14:33;;;;;;;;;;;4.00;54.70;;;2.19;60.59;100643.75;12247939;19;19927;-86
2023/12/05 10:18:35;;;;;;;;;;;4.30;54.90;;;2.26;60.75;100647.03;12248962;19;20650;-85
2023/12/05 10:22:37;;;;;;;;;;;4.30;55.20;;;2.38;60.47;100648.50;12248558;19;19940;-86
2023/12/05 10:26:47;;;;;;;;;;;4.00;54.80;;;2.42;60.63;100650.13;12248908;19;19922;-85
2023/12/05 10:30:49;;;;;;;;;;;4.10;55.00;;;2.32;60.81;100623.72;12249270;19;19919;-84
2023/12/05 10:34:52;;;;;;;;;;;4.30;55.10;;;2.49;60.51;100635.38;12248051;19;19951;-85
2023/12/05 10:38:54;;;;;;;;;;;4.20;55.10;;;2.51;60.50;100644.78;12250368;19;19922;-86
2023/12/05 10:42:55;;;;;;;;;;;4.20;54.30;;;2.22;60.37;100581.03;12247699;19;19923;-85
2023/12/05 10:46:57;;;;;;;;;;;4.30;54.80;;;2.51;60.59;100615.53;12249537;19;19919;-85
2023/12/05 10:50:59;;;;;;;;;;;4.30;54.60;;;2.40;60.56;100590.03;12247254;19;19923;-86
2023/12/05 10:55:01;;;;;;;;;;;4.30;54.60;;;2.34;60.59;100567.84;12248216;19;19936;-85
2023/12/05 10:59:03;;;;;;;;;;;4.30;54.50;;;2.39;60.74;100566.00;12249035;19;19919;-85
2023/12/05 11:03:04;;;;;;;;;;;4.40;54.70;;;2.61;60.55;100593.81;12243915;19;19943;-86
2023/12/05 11:07:06;;;;;;;;;;;4.40;54.90;;;2.57;60.58;100581.91;12248370;19;19919;-86
2023/12/05 11:11:07;;;;;;;;;;;4.70;54.80;;;2.65;60.47;100588.56;12244797;19;19911;-85
2023/12/05 11:15:09;;;;;;;;;;;4.50;54.80;;;2.74;60.58;100596.97;12246325;19;19932;-86
2023/12/05 11:19:35;;;;;;;;;;;4.50;54.90;;;2.76;60.44;100592.63;12247098;19;20266;-86
2023/12/05 11:23:49;;;;;;;;;;;4.50;54.60;;;2.83;60.64;100607.03;12257332;19;19960;-86
2023/12/05 11:28:19;;;;;;;;;;;4.50;54.80;;;2.77;60.49;100584.81;12259208;19;19922;-86
2023/12/05 11:32:30;;;;;;;;;;;4.50;54.50;;;2.87;60.51;100588.88;12253356;19;19927;-86
2023/12/05 11:37:23;;;;;;;;;;;4.60;54.80;;;2.90;60.44;100587.94;12260911;19;19918;-86
2023/12/05 11:41:24;;;;;;;;;;;4.70;54.40;;;2.89;60.62;100581.09;12254417;19;19956;-85
2023/12/05 11:45:27;;;;;;;;;;;4.80;54.30;;;2.94;60.65;100586.97;12259955;19;19931;-86
2023/12/05 11:49:36;;;;;;;;;;;4.70;54.80;;;3.01;60.54;100596.25;12257993;19;19922;-86
2023/12/05 11:53:38;;;;;;;;;;;4.70;54.90;;;2.92;60.54;100575.00;12260634;19;20275;-86
2023/12/05 11:57:40;;;;;;;;;;;4.70;54.80;;;2.89;60.33;100565.63;12259432;19;19914;-85
2023/12/05 12:01:41;;;;;;;;;;;4.80;54.90;;;2.95;60.23;100570.63;12253421;19;19974;-86
2023/12/05 12:05:43;;;;;;;;;;;4.80;55.10;;;2.86;60.33;100560.53;12256833;19;20584;-86
2023/12/05 12:09:44;;;;;;;;;;;4.80;55.00;;;2.79;60.35;100553.84;12254661;19;20454;-86
2023/12/05 12:13:46;;;;;;;;;;;4.80;55.00;;;2.78;60.47;100547.88;12258334;19;19926;-86
2023/12/05 12:17:48;;;;;;;;;;;4.80;55.00;;;3.06;60.30;100591.81;12259544;19;20309;-86
2023/12/05 12:21:50;;;;;;;;;;;4.80;55.20;;;2.97;60.14;100579.16;12253388;19;19922;-86
2023/12/05 12:25:57;;;;;;;;;;;5.00;55.50;;;3.05;60.45;100584.97;12258718;19;19918;-86
2023/12/05 12:29:59;;;;;;;;;;;4.80;55.10;;;2.85;60.42;100545.97;12254590;19;20273;-87
2023/12/05 12:34:03;;;;;;;;;;;4.80;55.10;;;3.10;60.52;100590.00;12257520;19;20589;-86
2023/12/05 12:38:04;;;;;;;;;;;5.10;55.30;;;2.99;60.39;100571.38;12253494;19;19973;-86
2023/12/05 12:42:10;;;;;;;;;;;4.80;55.20;;;3.08;60.47;100584.88;12251414;19;19936;-86
2023/12/05 12:46:12;;;;;;;;;;;4.80;55.20;;;3.07;60.34;100580.59;12252636;19;20367;-86
2023/12/05 12:50:13;;;;;;;;;;;4.80;55.20;;;2.91;60.46;100544.94;12251113;19;19967;-86
2023/12/05 12:54:17;;;;;;;;;;;4.90;55.20;;;3.13;60.57;100578.75;12253228;19;19918;-86
2023/12/05 12:58:26;;;;;;;;;;;4.90;55.20;;;3.12;60.30;100574.47;12252357;19;19923;-85
2023/12/05 13:02:31;;;;;;;;;;;5.00;55.30;;;3.13;60.45;100568.41;12252346;19;20269;-86
2023/12/05 13:06:41;;;;;;;;;;;5.20;55.30;;;2.79;60.37;100507.44;12253738;19;19921;-86
2023/12/05 13:10:43;;;;;;;;;;;5.00;55.10;;;3.20;60.49;100572.53;12248213;19;20330;-85
2023/12/05 13:14:49;;;;;;;;;;;4.90;54.50;;;3.23;60.39;100572.44;12253741;19;19919;-86
2023/12/05 13:18:51;;;;;;;;;;;5.00;54.70;;;3.27;60.54;100580.06;12252030;19;19923;-86
2023/12/05 13:22:53;;;;;;;;;;;5.00;54.80;;;3.28;60.63;100580.91;12252402;19;20350;-86
2023/12/05 13:26:54;;;;;;;;;;;5.00;54.90;;;3.01;60.38;100536.06;12253030;19;19959;-86
2023/12/05 13:30:56;;;;;;;;;;;5.20;55.10;;;3.22;60.24;100569.03;12250377;19;19919;-85
2023/12/05 13:34:57;;;;;;;;;;;5.30;55.00;;;3.24;60.38;100567.25;12252301;19;19923;-86
2023/12/05 13:38:59;;;;;;;;;;;5.00;54.80;;;3.29;60.50;100577.44;12251744;19;19922;-86
2023/12/05 13:43:01;;;;;;;;;;;5.10;54.90;;;2.99;60.22;100536.09;12247184;19;19935;-86
2023/12/05 13:47:03;;;;;;;;;;;5.00;54.80;;;3.15;60.36;100570.06;12250319;19;19918;-86
2023/12/05 13:51:07;;;;;;;;;;;5.00;54.80;;;2.98;60.33;100542.16;12249554;19;19911;-86
2023/12/05 13:55:08;;;;;;;;;;;5.00;54.90;;;3.17;60.28;100572.63;12252129;19;19926;-86
2023/12/05 13:59:10;;;;;;;;;;;5.00;54.70;;;3.24;60.38;100592.19;12252469;19;19915;-86
2023/12/05 14:03:12;;;;;;;;;;;5.00;54.90;;;3.29;60.39;100600.66;12250286;19;19928;-86
2023/12/05 14:07:14;;;;;;;;;;;5.00;55.00;;;3.23;60.34;100587.94;12252495;19;19915;-86
2023/12/05 14:11:15;;;;;;;;;;;5.00;54.80;;;3.09;60.35;100573.66;12249353;19;19936;-85
2023/12/05 14:15:17;;;;;;;;;;;5.10;55.00;;;3.19;60.39;100588.91;12250201;19;20294;-86
2023/12/05 14:19:19;;;;;;;;;;;4.90;55.00;;;3.23;60.31;100590.50;12250534;19;19919;-86
2023/12/05 14:23:20;;;;;;;;;;;5.20;55.20;;;3.24;60.27;100597.34;12248827;19;19918;-86
2023/12/05 14:27:22;;;;;;;;;;;4.90;54.90;;;3.14;60.44;100583.03;12250029;19;20330;-86
2023/12/05 14:31:23;;;;;;;;;;;4.90;55.00;;;3.17;60.21;100593.28;12247433;19;19923;-86
2023/12/05 14:35:25;;;;;;;;;;;4.90;55.00;;;3.21;60.46;100607.75;12250614;19;19915;-86
2023/12/05 14:39:27;;;;;;;;;;;4.90;55.10;;;3.13;60.41;100586.47;12246150;19;19958;-86
2023/12/05 14:43:28;;;;;;;;;;;4.90;55.00;;;2.91;60.29;100568.16;12247159;19;19923;-86
2023/12/05 14:47:30;;;;;;;;;;;4.90;54.90;;;3.05;60.26;100594.41;12248215;19;19935;-86
2023/12/05 14:51:31;;;;;;;;;;;4.90;55.00;;;3.11;60.22;100609.75;12247457;19;20356;-86
2023/12/05 14:55:32;;;;;;;;;;;4.80;55.00;;;2.95;60.45;100580.94;12247515;19;19918;-87
2023/12/05 14:59:34;;;;;;;;;;;4.90;55.10;;;2.82;60.33;100564.94;12246912;19;19922;-87
2023/12/05 15:03:35;;;;;;;;;;;4.90;55.10;;;2.78;60.16;100568.50;12245873;19;20725;-86
2023/12/05 15:07:37;;;;;;;;;;;4.80;55.10;;;3.19;60.11;100635.38;12249038;19;19922;-86
2023/12/05 15:11:38;;;;;;;;;;;4.80;55.10;;;3.16;60.25;100620.81;12246042;19;19919;-86
2023/12/05 15:15:41;;;;;;;;;;;4.80;55.10;;;2.88;60.38;100590.53;12249892;19;19919;-86
2023/12/05 15:19:43;;;;;;;;;;;5.10;55.20;;;2.91;60.37;100601.69;12248390;19;19907;-86
2023/12/05 15:23:44;;;;;;;;;;;4.80;55.20;;;3.10;60.28;100629.53;12243119;19;19907;-87
2023/12/05 15:27:46;;;;;;;;;;;4.70;55.10;;;2.82;60.29;100590.72;12247599;19;19922;-87
2023/12/05 15:31:47;;;;;;;;;;;4.80;55.10;;;2.95;60.14;100617.03;12241344;19;19914;-86
2023/12/05 15:35:49;;;;;;;;;;;4.80;55.20;;;2.62;60.33;100569.75;12232812;19;19929;-86
2023/12/05 15:39:51;;;;;;;;;;;4.70;55.20;;;2.76;60.31;100600.34;12235560;19;20330;-86
2023/12/05 15:43:52;;;;;;;;;;;4.70;55.20;;;2.69;60.27;100588.50;12237772;19;19929;-86
2023/12/05 15:47:54;;;;;;;;;;;4.70;55.20;;;2.96;60.41;100636.78;12241276;19;19931;-86
2023/12/05 15:51:57;;;;;;;;;;;4.80;55.30;;;2.91;60.31;100633.47;12237352;19;19918;-87
2023/12/05 15:55:58;;;;;;;;;;;4.70;55.30;;;2.93;60.32;100636.03;12242757;19;19986;-87
2023/12/05 16:00:01;;;;;;;;;;;4.70;55.30;;;2.96;60.42;100634.19;12238970;19;19978;-87
2023/12/05 16:04:13;;;;;;;;;;;4.60;55.30;;;2.93;60.30;100636.03;12238482;19;19911;-86
2023/12/05 16:08:15;;;;;;;;;;;4.70;55.40;;;2.95;60.28;100645.41;12246206;19;20360;-86
2023/12/05 16:12:17;;;;;;;;;;;4.60;55.30;;;2.97;60.23;100651.38;12249914;19;19923;-86
2023/12/05 16:16:18;;;;;;;;;;;4.60;55.30;;;2.90;60.37;100633.53;12253987;19;19917;-87
2023/12/05 16:20:20;;;;;;;;;;;4.60;55.40;;;3.01;60.30;100645.25;12251087;19;19915;-87
2023/12/05 16:24:22;;;;;;;;;;;4.80;55.50;;;2.78;60.18;100609.75;12248518;19;19919;-87
2023/12/05 16:28:23;;;;;;;;;;;4.60;55.40;;;2.91;60.31;100633.47;12252537;19;19986;-87
2023/12/05 16:32:25;;;;;;;;;;;4.60;55.40;;;2.84;60.37;100629.38;12251258;19;20482;-87
2023/12/05 16:36:37;;;;;;;;;;;4.60;55.40;;;2.32;60.17;100543.00;12251831;19;19915;-88
2023/12/05 16:40:42;;;;;;;;;;;4.60;55.40;;;2.87;60.29;100637.03;12251322;19;19926;-88
2023/12/05 16:44:45;;;;;;;;;;;4.60;55.40;;;2.76;60.35;100642.44;12251280;19;19931;-88
2023/12/05 16:48:47;;;;;;;;;;;4.80;55.50;;;2.39;60.24;100571.16;12251954;19;20298;-87
2023/12/05 16:52:49;;;;;;;;;;;4.50;55.50;;;2.76;60.39;100639.03;12247672;19;19919;-87
2023/12/05 16:56:52;;;;;;;;;;;4.50;55.50;;;2.75;60.32;100629.56;12244787;19;19923;-88
2023/12/05 17:00:53;;;;;;;;;;;4.50;55.50;;;2.87;60.52;100657.66;12251537;19;19917;-88
2023/12/05 17:04:55;;;;;;;;;;;4.60;55.60;;;2.86;60.50;100658.53;12250916;19;19922;-88
2023/12/05 17:08:56;;;;;;;;;;;4.70;55.60;;;2.66;60.41;100631.50;12252546;19;20277;-88
2023/12/05 17:12:59;;;;;;;;;;;4.50;55.60;;;2.86;60.52;100661.97;12254235;19;19942;-87
2023/12/05 17:17:02;;;;;;;;;;;4.70;55.70;;;2.85;60.29;100659.41;12255103;19;19918;-87
2023/12/05 17:21:04;;;;;;;;;;;4.60;55.70;;;2.53;60.24;100618.94;12252613;19;19944;-87
2023/12/05 17:25:06;;;;;;;;;;;4.50;55.60;;;2.52;60.44;100612.94;12250884;19;19960;-87
2023/12/05 17:29:07;;;;;;;;;;;4.50;55.70;;;2.80;60.34;100658.69;12253136;19;19914;-87
2023/12/05 17:33:09;;;;;;;;;;;4.50;55.60;;;2.87;60.16;100683.44;12248623;19;19944;-87
2023/12/05 17:37:11;;;;;;;;;;;4.60;55.70;;;2.59;60.19;100632.53;12251710;19;19978;-87
2023/12/05 17:41:12;;;;;;;;;;;4.50;55.70;;;2.75;60.44;100660.50;12248493;19;20250;-87
2023/12/05 17:45:13;;;;;;;;;;;4.60;55.70;;;2.68;60.24;100653.84;12249501;19;19919;-87
2023/12/05 17:49:15;;;;;;;;;;;4.50;55.60;;;2.84;60.36;100686.09;12249925;19;20478;-87
2023/12/05 17:53:17;;;;;;;;;;;4.60;55.70;;;2.81;60.34;100686.19;12251694;19;19954;-87
2023/12/05 17:57:18;;;;;;;;;;;4.50;55.60;;;2.85;60.28;100687.78;12251937;19;19943;-87
2023/12/05 18:01:20;;;;;;;;;;;4.50;55.60;;;2.72;60.31;100660.59;12249755;19;20293;-87
2023/12/05 18:05:21;;;;;;;;;;;4.40;55.60;;;2.61;60.17;100648.81;12247410;19;19929;-87
2023/12/05 18:09:23;;;;;;;;;;;4.50;55.60;;;2.87;60.18;100696.34;12248200;19;19922;-87
2023/12/05 18:13:25;;;;;;;;;;;4.50;55.60;;;2.73;60.38;100673.47;12250253;19;20336;-87
2023/12/05 18:17:26;;;;;;;;;;;4.50;55.60;;;2.68;60.36;100667.56;12252239;19;19919;-88
2023/12/05 18:21:28;;;;;;;;;;;4.50;55.60;;;2.73;60.23;100678.63;12245713;19;20013;-87
2023/12/05 18:25:30;;;;;;;;;;;4.50;55.60;;;2.80;60.32;100685.31;12249390;19;19919;-87
2023/12/05 18:29:32;;;;;;;;;;;4.50;55.50;;;2.82;60.29;100693.00;12247273;19;19918;-87
2023/12/05 18:33:33;;;;;;;;;;;4.50;55.50;;;2.72;60.40;100676.91;12251537;19;19924;-87
2023/12/05 18:37:36;;;;;;;;;;;4.50;55.50;;;2.48;60.47;100636.25;12250118;19;20337;-87
2023/12/05 18:41:37;;;;;;;;;;;4.50;55.50;;;2.79;60.35;100695.66;12246774;19;20582;-87